Sturminster Newton, United Kingdom
Current Conditions -  °F | °C
As of 12:14 PM on Monday 24 Nov 2014 (Local Time) from EGDY Reporting Station
Haze Haze  
Wind Chill: 46°   Ceiling: 20000
Heat Index: 46°   Visibility: 5mi
Dew Point: 41°   Wind: 1mph
Humidity: 81%   Direction: 250°WSW
Pressure: 30.33"   Gusts: NA
Location:  50.93°N, 2.31°W
Report Text: EGDY 241214Z 25001KT 8000 HZ FEW010 BKN200 08/05 Q1027 BLU NOSIG
Loading
Personal Weather Stations






























Interactive Weather Map New forecast layout! Learn more

10-Day Weather Forecast

Advertisements
Track Severe Weather on mobile